sensor_id;sensor_type;location;lat;lon;timestamp;P1;durP1;ratioP1;P2;durP2;ratioP2
17886;SDS011;9069;52.044;7.472;2023-02-28T00:00:36;9.13;;;3.88;;
17886;SDS011;9069;52.044;7.472;2023-02-28T00:03:03;7.18;;;3.25;;
17886;SDS011;9069;52.044;7.472;2023-02-28T00:05:30;6.80;;;3.33;;
17886;SDS011;9069;52.044;7.472;2023-02-28T00:07:57;7.00;;;2.95;;
17886;SDS011;9069;52.044;7.472;2023-02-28T00:10:25;7.50;;;3.20;;
17886;SDS011;9069;52.044;7.472;2023-02-28T00:12:55;6.93;;;3.33;;
17886;SDS011;9069;52.044;7.472;2023-02-28T00:15:23;4.68;;;2.90;;
17886;SDS011;9069;52.044;7.472;2023-02-28T00:17:50;9.20;;;3.33;;
17886;SDS011;9069;52.044;7.472;2023-02-28T00:20:17;6.13;;;3.22;;
17886;SDS011;9069;52.044;7.472;2023-02-28T00:22:46;4.68;;;2.97;;
17886;SDS011;9069;52.044;7.472;2023-02-28T00:25:15;5.13;;;2.97;;
17886;SDS011;9069;52.044;7.472;2023-02-28T00:27:44;5.78;;;3.30;;
17886;SDS011;9069;52.044;7.472;2023-02-28T00:30:12;6.07;;;3.35;;
17886;SDS011;9069;52.044;7.472;2023-02-28T00:32:42;6.22;;;3.38;;
17886;SDS011;9069;52.044;7.472;2023-02-28T00:35:09;10.40;;;7.15;;
17886;SDS011;9069;52.044;7.472;2023-02-28T00:37:40;13.13;;;5.57;;
17886;SDS011;9069;52.044;7.472;2023-02-28T00:40:07;11.68;;;8.02;;
17886;SDS011;9069;52.044;7.472;2023-02-28T00:42:35;11.63;;;7.57;;
17886;SDS011;9069;52.044;7.472;2023-02-28T00:45:03;7.72;;;4.90;;
17886;SDS011;9069;52.044;7.472;2023-02-28T00:47:36;14.30;;;7.05;;
17886;SDS011;9069;52.044;7.472;2023-02-28T00:50:03;9.10;;;5.45;;
17886;SDS011;9069;52.044;7.472;2023-02-28T00:52:31;13.20;;;5.47;;
17886;SDS011;9069;52.044;7.472;2023-02-28T00:54:58;12.75;;;4.32;;
17886;SDS011;9069;52.044;7.472;2023-02-28T00:57:25;7.63;;;5.13;;
17886;SDS011;9069;52.044;7.472;2023-02-28T00:59:52;9.00;;;4.28;;
17886;SDS011;9069;52.044;7.472;2023-02-28T01:02:22;6.72;;;3.72;;
17886;SDS011;9069;52.044;7.472;2023-02-28T01:04:51;8.13;;;3.92;;
17886;SDS011;9069;52.044;7.472;2023-02-28T01:07:18;6.13;;;3.55;;
17886;SDS011;9069;52.044;7.472;2023-02-28T01:09:45;6.75;;;3.53;;
17886;SDS011;9069;52.044;7.472;2023-02-28T01:12:12;7.50;;;3.67;;
17886;SDS011;9069;52.044;7.472;2023-02-28T01:14:39;6.38;;;3.30;;
17886;SDS011;9069;52.044;7.472;2023-02-28T01:17:06;5.65;;;2.90;;
17886;SDS011;9069;52.044;7.472;2023-02-28T01:19:33;8.68;;;3.20;;
17886;SDS011;9069;52.044;7.472;2023-02-28T01:22:02;5.47;;;3.10;;
17886;SDS011;9069;52.044;7.472;2023-02-28T01:24:30;5.50;;;3.05;;
17886;SDS011;9069;52.044;7.472;2023-02-28T01:26:59;6.18;;;2.85;;
17886;SDS011;9069;52.044;7.472;2023-02-28T01:29:26;10.10;;;3.33;;
17886;SDS011;9069;52.044;7.472;2023-02-28T01:31:52;7.75;;;3.45;;
17886;SDS011;9069;52.044;7.472;2023-02-28T01:34:19;5.57;;;2.83;;
17886;SDS011;9069;52.044;7.472;2023-02-28T01:36:46;4.17;;;2.97;;
17886;SDS011;9069;52.044;7.472;2023-02-28T01:39:13;5.28;;;2.70;;
17886;SDS011;9069;52.044;7.472;2023-02-28T01:41:40;4.93;;;2.83;;
17886;SDS011;9069;52.044;7.472;2023-02-28T01:44:55;5.50;;;2.55;;
17886;SDS011;9069;52.044;7.472;2023-02-28T01:47:12;6.25;;;2.67;;
17886;SDS011;9069;52.044;7.472;2023-02-28T01:49:40;3.97;;;2.67;;
17886;SDS011;9069;52.044;7.472;2023-02-28T01:52:07;4.97;;;2.30;;
17886;SDS011;9069;52.044;7.472;2023-02-28T01:54:45;5.28;;;2.38;;
17886;SDS011;9069;52.044;7.472;2023-02-28T01:57:17;4.70;;;2.95;;
17886;SDS011;9069;52.044;7.472;2023-02-28T01:59:52;3.80;;;2.65;;
17886;SDS011;9069;52.044;7.472;2023-02-28T02:02:25;4.80;;;2.90;;
17886;SDS011;9069;52.044;7.472;2023-02-28T02:07:29;5.45;;;3.15;;
17886;SDS011;9069;52.044;7.472;2023-02-28T02:10:00;7.07;;;3.67;;
17886;SDS011;9069;52.044;7.472;2023-02-28T02:17:52;4.70;;;2.85;;
17886;SDS011;9069;52.044;7.472;2023-02-28T02:23:05;6.22;;;3.10;;
17886;SDS011;9069;52.044;7.472;2023-02-28T02:26:05;5.30;;;2.90;;
17886;SDS011;9069;52.044;7.472;2023-02-28T02:29:09;6.18;;;3.03;;
17886;SDS011;9069;52.044;7.472;2023-02-28T02:34:33;9.02;;;3.30;;
17886;SDS011;9069;52.044;7.472;2023-02-28T02:40:20;4.70;;;3.03;;
17886;SDS011;9069;52.044;7.472;2023-02-28T02:43:01;7.72;;;3.35;;
17886;SDS011;9069;52.044;7.472;2023-02-28T02:45:46;6.00;;;2.92;;
17886;SDS011;9069;52.044;7.472;2023-02-28T02:48:20;6.00;;;2.67;;
17886;SDS011;9069;52.044;7.472;2023-02-28T02:50:53;4.65;;;2.88;;
17886;SDS011;9069;52.044;7.472;2023-02-28T02:53:24;4.00;;;2.70;;
17886;SDS011;9069;52.044;7.472;2023-02-28T02:56:00;5.20;;;2.63;;
17886;SDS011;9069;52.044;7.472;2023-02-28T02:58:32;5.95;;;2.67;;
17886;SDS011;9069;52.044;7.472;2023-02-28T03:01:10;5.22;;;2.63;;
17886;SDS011;9069;52.044;7.472;2023-02-28T03:03:40;4.72;;;3.10;;
17886;SDS011;9069;52.044;7.472;2023-02-28T03:06:08;5.78;;;3.00;;
17886;SDS011;9069;52.044;7.472;2023-02-28T03:08:37;5.75;;;2.80;;
17886;SDS011;9069;52.044;7.472;2023-02-28T03:11:05;5.03;;;2.88;;
17886;SDS011;9069;52.044;7.472;2023-02-28T03:19:42;5.45;;;3.47;;
17886;SDS011;9069;52.044;7.472;2023-02-28T03:25:09;5.22;;;3.03;;
17886;SDS011;9069;52.044;7.472;2023-02-28T03:28:03;9.77;;;4.00;;
17886;SDS011;9069;52.044;7.472;2023-02-28T03:30:57;7.90;;;3.80;;
17886;SDS011;9069;52.044;7.472;2023-02-28T03:33:58;11.82;;;4.15;;
17886;SDS011;9069;52.044;7.472;2023-02-28T03:36:27;6.07;;;3.20;;
17886;SDS011;9069;52.044;7.472;2023-02-28T03:39:07;8.52;;;3.40;;
17886;SDS011;9069;52.044;7.472;2023-02-28T03:41:42;9.90;;;3.20;;
17886;SDS011;9069;52.044;7.472;2023-02-28T03:44:15;6.65;;;3.70;;
17886;SDS011;9069;52.044;7.472;2023-02-28T03:46:51;8.00;;;3.90;;
17886;SDS011;9069;52.044;7.472;2023-02-28T03:49:25;7.88;;;3.28;;
17886;SDS011;9069;52.044;7.472;2023-02-28T03:51:58;8.95;;;3.35;;
17886;SDS011;9069;52.044;7.472;2023-02-28T03:54:33;6.50;;;3.20;;
17886;SDS011;9069;52.044;7.472;2023-02-28T03:57:08;5.10;;;3.40;;
17886;SDS011;9069;52.044;7.472;2023-02-28T03:59:47;4.93;;;2.47;;
17886;SDS011;9069;52.044;7.472;2023-02-28T04:02:20;6.25;;;3.10;;
17886;SDS011;9069;52.044;7.472;2023-02-28T04:04:47;5.35;;;3.33;;
17886;SDS011;9069;52.044;7.472;2023-02-28T04:07:15;5.20;;;3.38;;
17886;SDS011;9069;52.044;7.472;2023-02-28T04:09:43;9.85;;;3.22;;
17886;SDS011;9069;52.044;7.472;2023-02-28T04:12:10;8.15;;;2.85;;
17886;SDS011;9069;52.044;7.472;2023-02-28T04:14:37;6.65;;;2.75;;
17886;SDS011;9069;52.044;7.472;2023-02-28T04:17:04;6.28;;;2.75;;
17886;SDS011;9069;52.044;7.472;2023-02-28T04:19:31;6.93;;;2.60;;
17886;SDS011;9069;52.044;7.472;2023-02-28T04:21:57;3.47;;;2.50;;
17886;SDS011;9069;52.044;7.472;2023-02-28T04:24:25;4.22;;;2.63;;
17886;SDS011;9069;52.044;7.472;2023-02-28T04:26:54;6.80;;;2.60;;
17886;SDS011;9069;52.044;7.472;2023-02-28T04:29:26;4.22;;;2.53;;
17886;SDS011;9069;52.044;7.472;2023-02-28T04:31:55;5.10;;;2.90;;
17886;SDS011;9069;52.044;7.472;2023-02-28T04:34:26;5.07;;;2.67;;
17886;SDS011;9069;52.044;7.472;2023-02-28T04:36:54;4.65;;;2.63;;
17886;SDS011;9069;52.044;7.472;2023-02-28T04:39:37;6.28;;;2.88;;
17886;SDS011;9069;52.044;7.472;2023-02-28T04:42:04;6.00;;;2.88;;
17886;SDS011;9069;52.044;7.472;2023-02-28T04:44:31;3.92;;;2.53;;
17886;SDS011;9069;52.044;7.472;2023-02-28T04:46:58;4.65;;;2.50;;
17886;SDS011;9069;52.044;7.472;2023-02-28T04:49:25;4.18;;;2.65;;
17886;SDS011;9069;52.044;7.472;2023-02-28T04:51:52;5.10;;;3.15;;
17886;SDS011;9069;52.044;7.472;2023-02-28T04:54:19;17.10;;;9.07;;
17886;SDS011;9069;52.044;7.472;2023-02-28T04:56:46;79.28;;;32.67;;
17886;SDS011;9069;52.044;7.472;2023-02-28T04:59:15;56.00;;;28.10;;
17886;SDS011;9069;52.044;7.472;2023-02-28T05:01:45;62.92;;;30.88;;
17886;SDS011;9069;52.044;7.472;2023-02-28T05:04:14;65.88;;;32.55;;
17886;SDS011;9069;52.044;7.472;2023-02-28T05:06:41;43.42;;;23.33;;
17886;SDS011;9069;52.044;7.472;2023-02-28T05:09:07;35.50;;;19.07;;
17886;SDS011;9069;52.044;7.472;2023-02-28T05:11:34;16.20;;;9.10;;
17886;SDS011;9069;52.044;7.472;2023-02-28T05:14:02;15.25;;;6.93;;
17886;SDS011;9069;52.044;7.472;2023-02-28T05:16:39;10.48;;;4.85;;
17886;SDS011;9069;52.044;7.472;2023-02-28T05:19:06;8.77;;;4.17;;
17886;SDS011;9069;52.044;7.472;2023-02-28T05:21:34;6.17;;;3.50;;
17886;SDS011;9069;52.044;7.472;2023-02-28T05:24:03;7.05;;;3.08;;
17886;SDS011;9069;52.044;7.472;2023-02-28T05:26:35;6.78;;;3.40;;
17886;SDS011;9069;52.044;7.472;2023-02-28T05:29:04;5.57;;;2.97;;
17886;SDS011;9069;52.044;7.472;2023-02-28T05:31:31;8.85;;;3.15;;
17886;SDS011;9069;52.044;7.472;2023-02-28T05:33:58;6.57;;;2.60;;
17886;SDS011;9069;52.044;7.472;2023-02-28T05:36:25;4.93;;;3.00;;
17886;SDS011;9069;52.044;7.472;2023-02-28T05:38:52;5.35;;;3.28;;
17886;SDS011;9069;52.044;7.472;2023-02-28T05:41:19;8.05;;;3.10;;
17886;SDS011;9069;52.044;7.472;2023-02-28T05:43:46;5.13;;;2.70;;
17886;SDS011;9069;52.044;7.472;2023-02-28T05:46:14;5.37;;;3.10;;
17886;SDS011;9069;52.044;7.472;2023-02-28T05:48:42;5.57;;;2.67;;
17886;SDS011;9069;52.044;7.472;2023-02-28T05:51:11;4.73;;;2.40;;
17886;SDS011;9069;52.044;7.472;2023-02-28T05:53:38;7.87;;;2.90;;
17886;SDS011;9069;52.044;7.472;2023-02-28T05:56:05;4.40;;;2.53;;
17886;SDS011;9069;52.044;7.472;2023-02-28T05:58:32;7.15;;;2.80;;
17886;SDS011;9069;52.044;7.472;2023-02-28T06:01:00;5.43;;;2.70;;
17886;SDS011;9069;52.044;7.472;2023-02-28T06:03:45;5.43;;;2.50;;
17886;SDS011;9069;52.044;7.472;2023-02-28T06:06:12;5.90;;;2.45;;
17886;SDS011;9069;52.044;7.472;2023-02-28T06:08:38;5.03;;;3.10;;
17886;SDS011;9069;52.044;7.472;2023-02-28T06:11:05;7.47;;;2.92;;
17886;SDS011;9069;52.044;7.472;2023-02-28T06:13:33;5.85;;;2.67;;
17886;SDS011;9069;52.044;7.472;2023-02-28T06:16:02;5.75;;;2.33;;
17886;SDS011;9069;52.044;7.472;2023-02-28T06:18:30;3.60;;;3.00;;
17886;SDS011;9069;52.044;7.472;2023-02-28T06:20:57;4.68;;;2.42;;
17886;SDS011;9069;52.044;7.472;2023-02-28T06:23:24;5.25;;;2.72;;
17886;SDS011;9069;52.044;7.472;2023-02-28T06:25:51;5.15;;;2.80;;
17886;SDS011;9069;52.044;7.472;2023-02-28T06:28:19;6.00;;;2.85;;
17886;SDS011;9069;52.044;7.472;2023-02-28T06:30:46;4.50;;;2.33;;
17886;SDS011;9069;52.044;7.472;2023-02-28T06:33:13;4.38;;;2.70;;
17886;SDS011;9069;52.044;7.472;2023-02-28T06:35:40;6.20;;;2.33;;
17886;SDS011;9069;52.044;7.472;2023-02-28T06:38:09;3.80;;;2.17;;
17886;SDS011;9069;52.044;7.472;2023-02-28T06:40:37;4.30;;;2.65;;
17886;SDS011;9069;52.044;7.472;2023-02-28T06:43:03;4.18;;;2.10;;
17886;SDS011;9069;52.044;7.472;2023-02-28T06:45:30;5.27;;;2.40;;
17886;SDS011;9069;52.044;7.472;2023-02-28T06:47:57;3.70;;;2.20;;
17886;SDS011;9069;52.044;7.472;2023-02-28T06:50:24;2.47;;;1.88;;
17886;SDS011;9069;52.044;7.472;2023-02-28T06:52:51;3.88;;;2.35;;
17886;SDS011;9069;52.044;7.472;2023-02-28T06:55:20;6.67;;;2.27;;
17886;SDS011;9069;52.044;7.472;2023-02-28T06:57:47;3.78;;;2.20;;
17886;SDS011;9069;52.044;7.472;2023-02-28T07:00:14;3.63;;;2.33;;
17886;SDS011;9069;52.044;7.472;2023-02-28T07:02:41;4.00;;;2.07;;
17886;SDS011;9069;52.044;7.472;2023-02-28T07:05:08;5.13;;;2.87;;
17886;SDS011;9069;52.044;7.472;2023-02-28T07:07:34;5.17;;;2.93;;
17886;SDS011;9069;52.044;7.472;2023-02-28T07:10:04;5.53;;;2.97;;
17886;SDS011;9069;52.044;7.472;2023-02-28T07:12:31;5.43;;;3.00;;
17886;SDS011;9069;52.044;7.472;2023-02-28T07:14:58;3.80;;;2.67;;
17886;SDS011;9069;52.044;7.472;2023-02-28T07:17:25;4.43;;;2.67;;
17886;SDS011;9069;52.044;7.472;2023-02-28T07:19:52;3.42;;;2.47;;
17886;SDS011;9069;52.044;7.472;2023-02-28T07:22:18;9.88;;;2.95;;
17886;SDS011;9069;52.044;7.472;2023-02-28T07:24:45;4.18;;;2.17;;
17886;SDS011;9069;52.044;7.472;2023-02-28T07:27:12;3.55;;;2.45;;
17886;SDS011;9069;52.044;7.472;2023-02-28T07:29:52;2.80;;;2.33;;
17886;SDS011;9069;52.044;7.472;2023-02-28T07:32:19;2.58;;;1.83;;
17886;SDS011;9069;52.044;7.472;2023-02-28T07:34:46;5.05;;;2.33;;
17886;SDS011;9069;52.044;7.472;2023-02-28T07:37:13;3.50;;;1.90;;
17886;SDS011;9069;52.044;7.472;2023-02-28T07:39:40;3.45;;;2.00;;
17886;SDS011;9069;52.044;7.472;2023-02-28T07:42:10;2.78;;;1.77;;
17886;SDS011;9069;52.044;7.472;2023-02-28T07:44:39;5.70;;;2.70;;
17886;SDS011;9069;52.044;7.472;2023-02-28T07:47:07;3.85;;;2.13;;
17886;SDS011;9069;52.044;7.472;2023-02-28T07:49:35;5.55;;;1.88;;
17886;SDS011;9069;52.044;7.472;2023-02-28T07:52:03;3.80;;;2.13;;
17886;SDS011;9069;52.044;7.472;2023-02-28T07:54:32;3.80;;;2.17;;
17886;SDS011;9069;52.044;7.472;2023-02-28T07:56:59;2.92;;;2.30;;
17886;SDS011;9069;52.044;7.472;2023-02-28T07:59:26;5.45;;;3.13;;
17886;SDS011;9069;52.044;7.472;2023-02-28T08:01:53;4.10;;;2.72;;
17886;SDS011;9069;52.044;7.472;2023-02-28T08:04:20;3.70;;;2.25;;
17886;SDS011;9069;52.044;7.472;2023-02-28T08:06:47;3.72;;;2.38;;
17886;SDS011;9069;52.044;7.472;2023-02-28T08:09:13;2.90;;;2.15;;
17886;SDS011;9069;52.044;7.472;2023-02-28T08:11:40;7.25;;;2.00;;
17886;SDS011;9069;52.044;7.472;2023-02-28T08:14:07;7.40;;;2.33;;
17886;SDS011;9069;52.044;7.472;2023-02-28T08:16:34;5.00;;;2.17;;
17886;SDS011;9069;52.044;7.472;2023-02-28T08:19:02;5.80;;;2.20;;
17886;SDS011;9069;52.044;7.472;2023-02-28T08:21:29;4.97;;;2.67;;
17886;SDS011;9069;52.044;7.472;2023-02-28T08:23:56;5.18;;;2.58;;
17886;SDS011;9069;52.044;7.472;2023-02-28T08:26:23;4.20;;;2.75;;
17886;SDS011;9069;52.044;7.472;2023-02-28T08:28:50;4.60;;;2.40;;
17886;SDS011;9069;52.044;7.472;2023-02-28T08:31:17;4.30;;;2.30;;
17886;SDS011;9069;52.044;7.472;2023-02-28T08:33:44;4.85;;;2.05;;
17886;SDS011;9069;52.044;7.472;2023-02-28T08:36:11;4.68;;;2.00;;
17886;SDS011;9069;52.044;7.472;2023-02-28T08:38:38;2.70;;;1.90;;
17886;SDS011;9069;52.044;7.472;2023-02-28T08:41:06;6.75;;;2.00;;
17886;SDS011;9069;52.044;7.472;2023-02-28T08:43:35;2.28;;;1.70;;
17886;SDS011;9069;52.044;7.472;2023-02-28T08:46:03;4.10;;;2.20;;
17886;SDS011;9069;52.044;7.472;2023-02-28T08:48:31;3.03;;;1.80;;
17886;SDS011;9069;52.044;7.472;2023-02-28T08:51:06;3.92;;;1.77;;
17886;SDS011;9069;52.044;7.472;2023-02-28T08:53:36;1.30;;;1.20;;
17886;SDS011;9069;52.044;7.472;2023-02-28T08:56:04;5.78;;;1.70;;
17886;SDS011;9069;52.044;7.472;2023-02-28T08:58:36;2.58;;;1.77;;
17886;SDS011;9069;52.044;7.472;2023-02-28T09:01:07;14.45;;;2.55;;
17886;SDS011;9069;52.044;7.472;2023-02-28T09:03:48;2.83;;;1.60;;
17886;SDS011;9069;52.044;7.472;2023-02-28T09:06:16;3.70;;;1.65;;
17886;SDS011;9069;52.044;7.472;2023-02-28T09:08:44;2.42;;;1.42;;
17886;SDS011;9069;52.044;7.472;2023-02-28T09:11:11;2.47;;;1.80;;
17886;SDS011;9069;52.044;7.472;2023-02-28T09:13:38;3.15;;;1.45;;
17886;SDS011;9069;52.044;7.472;2023-02-28T09:16:07;3.17;;;2.20;;
17886;SDS011;9069;52.044;7.472;2023-02-28T09:18:36;2.45;;;1.50;;
17886;SDS011;9069;52.044;7.472;2023-02-28T09:21:08;2.05;;;1.48;;
17886;SDS011;9069;52.044;7.472;2023-02-28T09:23:43;3.88;;;1.63;;
17886;SDS011;9069;52.044;7.472;2023-02-28T09:26:15;3.03;;;1.70;;
17886;SDS011;9069;52.044;7.472;2023-02-28T09:29:04;2.50;;;1.27;;
17886;SDS011;9069;52.044;7.472;2023-02-28T09:31:31;1.90;;;1.48;;
17886;SDS011;9069;52.044;7.472;2023-02-28T09:33:58;2.55;;;1.45;;
17886;SDS011;9069;52.044;7.472;2023-02-28T09:36:26;2.63;;;1.48;;
17886;SDS011;9069;52.044;7.472;2023-02-28T09:39:09;1.42;;;1.20;;
17886;SDS011;9069;52.044;7.472;2023-02-28T09:41:38;3.50;;;1.40;;
17886;SDS011;9069;52.044;7.472;2023-02-28T09:44:16;1.33;;;1.13;;
17886;SDS011;9069;52.044;7.472;2023-02-28T09:46:49;1.67;;;1.00;;
17886;SDS011;9069;52.044;7.472;2023-02-28T09:49:22;1.65;;;1.02;;
17886;SDS011;9069;52.044;7.472;2023-02-28T09:51:58;29.45;;;4.30;;
17886;SDS011;9069;52.044;7.472;2023-02-28T09:54:37;2.38;;;1.23;;
17886;SDS011;9069;52.044;7.472;2023-02-28T09:57:06;2.25;;;1.00;;
17886;SDS011;9069;52.044;7.472;2023-02-28T09:59:51;1.05;;;0.80;;
17886;SDS011;9069;52.044;7.472;2023-02-28T10:05:52;0.60;;;0.60;;
17886;SDS011;9069;52.044;7.472;2023-02-28T10:08:50;0.68;;;0.60;;
17886;SDS011;9069;52.044;7.472;2023-02-28T10:11:24;2.72;;;0.60;;
17886;SDS011;9069;52.044;7.472;2023-02-28T10:13:56;1.80;;;0.98;;
17886;SDS011;9069;52.044;7.472;2023-02-28T10:16:29;1.67;;;0.70;;
17886;SDS011;9069;52.044;7.472;2023-02-28T10:19:15;0.60;;;0.60;;
17886;SDS011;9069;52.044;7.472;2023-02-28T10:21:57;0.57;;;0.50;;
17886;SDS011;9069;52.044;7.472;2023-02-28T10:24:35;1.80;;;0.85;;
17886;SDS011;9069;52.044;7.472;2023-02-28T10:27:13;10.25;;;1.88;;
17886;SDS011;9069;52.044;7.472;2023-02-28T10:29:52;2.00;;;0.80;;
17886;SDS011;9069;52.044;7.472;2023-02-28T10:32:25;1.27;;;0.80;;
17886;SDS011;9069;52.044;7.472;2023-02-28T10:35:00;8.07;;;1.23;;
17886;SDS011;9069;52.044;7.472;2023-02-28T10:37:33;1.90;;;0.80;;
17886;SDS011;9069;52.044;7.472;2023-02-28T10:40:05;1.75;;;0.68;;
17886;SDS011;9069;52.044;7.472;2023-02-28T10:42:33;1.73;;;0.85;;
17886;SDS011;9069;52.044;7.472;2023-02-28T10:45:13;1.50;;;0.95;;
17886;SDS011;9069;52.044;7.472;2023-02-28T10:47:49;0.82;;;0.70;;
17886;SDS011;9069;52.044;7.472;2023-02-28T10:53:34;1.58;;;0.80;;
17886;SDS011;9069;52.044;7.472;2023-02-28T10:58:56;1.23;;;0.70;;
17886;SDS011;9069;52.044;7.472;2023-02-28T11:01:38;3.60;;;1.10;;
17886;SDS011;9069;52.044;7.472;2023-02-28T11:04:16;3.67;;;1.45;;
17886;SDS011;9069;52.044;7.472;2023-02-28T11:06:56;5.13;;;1.10;;
17886;SDS011;9069;52.044;7.472;2023-02-28T11:09:38;4.80;;;1.00;;
17886;SDS011;9069;52.044;7.472;2023-02-28T11:12:07;2.75;;;1.10;;
17886;SDS011;9069;52.044;7.472;2023-02-28T11:14:52;13.52;;;2.08;;
17886;SDS011;9069;52.044;7.472;2023-02-28T11:17:38;2.13;;;1.13;;
17886;SDS011;9069;52.044;7.472;2023-02-28T11:20:05;2.75;;;1.00;;
17886;SDS011;9069;52.044;7.472;2023-02-28T11:22:43;3.00;;;1.25;;
17886;SDS011;9069;52.044;7.472;2023-02-28T11:25:16;12.32;;;1.95;;
17886;SDS011;9069;52.044;7.472;2023-02-28T11:27:53;1.42;;;0.93;;
17886;SDS011;9069;52.044;7.472;2023-02-28T11:30:30;1.88;;;1.02;;
17886;SDS011;9069;52.044;7.472;2023-02-28T11:32:57;1.77;;;0.88;;
17886;SDS011;9069;52.044;7.472;2023-02-28T11:35:26;3.17;;;1.08;;
17886;SDS011;9069;52.044;7.472;2023-02-28T11:37:56;2.47;;;1.00;;
17886;SDS011;9069;52.044;7.472;2023-02-28T11:43:02;2.13;;;1.10;;
17886;SDS011;9069;52.044;7.472;2023-02-28T11:45:45;1.33;;;1.00;;
17886;SDS011;9069;52.044;7.472;2023-02-28T12:00:29;1.38;;;0.95;;
17886;SDS011;9069;52.044;7.472;2023-02-28T12:03:11;2.13;;;1.08;;
17886;SDS011;9069;52.044;7.472;2023-02-28T12:05:54;1.30;;;1.20;;
17886;SDS011;9069;52.044;7.472;2023-02-28T12:14:25;3.60;;;0.90;;
17886;SDS011;9069;52.044;7.472;2023-02-28T12:22:31;16.05;;;2.25;;
17886;SDS011;9069;52.044;7.472;2023-02-28T12:27:36;5.30;;;1.35;;
17886;SDS011;9069;52.044;7.472;2023-02-28T12:30:19;4.63;;;1.48;;
17886;SDS011;9069;52.044;7.472;2023-02-28T12:33:04;1.30;;;1.20;;
17886;SDS011;9069;52.044;7.472;2023-02-28T12:35:38;2.33;;;1.13;;
17886;SDS011;9069;52.044;7.472;2023-02-28T12:44:13;1.90;;;1.20;;
17886;SDS011;9069;52.044;7.472;2023-02-28T12:46:25;2.88;;;1.52;;
17886;SDS011;9069;52.044;7.472;2023-02-28T12:49:10;1.80;;;1.13;;
17886;SDS011;9069;52.044;7.472;2023-02-28T12:51:44;1.30;;;1.05;;
17886;SDS011;9069;52.044;7.472;2023-02-28T12:54:25;2.50;;;1.20;;
17886;SDS011;9069;52.044;7.472;2023-02-28T12:59:36;1.83;;;1.20;;
17886;SDS011;9069;52.044;7.472;2023-02-28T13:11:04;4.93;;;1.70;;
17886;SDS011;9069;52.044;7.472;2023-02-28T13:13:45;2.40;;;1.33;;
17886;SDS011;9069;52.044;7.472;2023-02-28T13:16:12;3.40;;;1.45;;
17886;SDS011;9069;52.044;7.472;2023-02-28T13:18:42;2.05;;;1.30;;
17886;SDS011;9069;52.044;7.472;2023-02-28T13:21:24;2.35;;;1.60;;
17886;SDS011;9069;52.044;7.472;2023-02-28T13:31:25;9.32;;;2.00;;
17886;SDS011;9069;52.044;7.472;2023-02-28T13:36:26;1.25;;;1.15;;
17886;SDS011;9069;52.044;7.472;2023-02-28T13:39:02;2.30;;;1.55;;
17886;SDS011;9069;52.044;7.472;2023-02-28T13:41:49;11.45;;;3.38;;
17886;SDS011;9069;52.044;7.472;2023-02-28T13:44:17;4.80;;;2.88;;
17886;SDS011;9069;52.044;7.472;2023-02-28T13:51:52;1.65;;;1.38;;
17886;SDS011;9069;52.044;7.472;2023-02-28T13:57:14;5.10;;;3.33;;
17886;SDS011;9069;52.044;7.472;2023-02-28T14:02:53;5.35;;;2.85;;
17886;SDS011;9069;52.044;7.472;2023-02-28T14:05:36;1.73;;;1.52;;
17886;SDS011;9069;52.044;7.472;2023-02-28T14:08:11;3.40;;;2.08;;
17886;SDS011;9069;52.044;7.472;2023-02-28T14:10:50;2.63;;;1.67;;
17886;SDS011;9069;52.044;7.472;2023-02-28T14:13:42;2.60;;;1.63;;
17886;SDS011;9069;52.044;7.472;2023-02-28T14:16:20;3.60;;;1.38;;
17886;SDS011;9069;52.044;7.472;2023-02-28T14:18:58;1.55;;;1.10;;
17886;SDS011;9069;52.044;7.472;2023-02-28T14:21:29;16.95;;;4.53;;
17886;SDS011;9069;52.044;7.472;2023-02-28T14:35:02;2.53;;;1.30;;
17886;SDS011;9069;52.044;7.472;2023-02-28T14:37:50;3.20;;;1.63;;
17886;SDS011;9069;52.044;7.472;2023-02-28T14:40:43;4.25;;;1.58;;
17886;SDS011;9069;52.044;7.472;2023-02-28T14:43:16;8.98;;;2.25;;
17886;SDS011;9069;52.044;7.472;2023-02-28T14:45:54;6.43;;;2.10;;
17886;SDS011;9069;52.044;7.472;2023-02-28T14:48:24;4.38;;;1.70;;
17886;SDS011;9069;52.044;7.472;2023-02-28T14:50:54;2.28;;;1.50;;
17886;SDS011;9069;52.044;7.472;2023-02-28T14:53:24;2.97;;;2.00;;
17886;SDS011;9069;52.044;7.472;2023-02-28T14:55:54;1.45;;;1.33;;
17886;SDS011;9069;52.044;7.472;2023-02-28T14:58:26;8.27;;;1.98;;
17886;SDS011;9069;52.044;7.472;2023-02-28T15:00:58;2.15;;;1.67;;
17886;SDS011;9069;52.044;7.472;2023-02-28T15:03:31;2.35;;;1.63;;
17886;SDS011;9069;52.044;7.472;2023-02-28T15:06:06;10.80;;;1.92;;
17886;SDS011;9069;52.044;7.472;2023-02-28T15:08:39;3.58;;;1.98;;
17886;SDS011;9069;52.044;7.472;2023-02-28T15:11:16;2.50;;;1.80;;
17886;SDS011;9069;52.044;7.472;2023-02-28T15:13:49;2.08;;;1.42;;
17886;SDS011;9069;52.044;7.472;2023-02-28T15:16:26;2.88;;;1.70;;
17886;SDS011;9069;52.044;7.472;2023-02-28T15:24:41;2.05;;;1.30;;
17886;SDS011;9069;52.044;7.472;2023-02-28T15:27:27;4.72;;;1.55;;
17886;SDS011;9069;52.044;7.472;2023-02-28T15:29:59;2.22;;;1.40;;
17886;SDS011;9069;52.044;7.472;2023-02-28T15:32:35;2.53;;;1.70;;
17886;SDS011;9069;52.044;7.472;2023-02-28T15:40:31;4.53;;;2.05;;
17886;SDS011;9069;52.044;7.472;2023-02-28T15:45:40;4.68;;;2.25;;
17886;SDS011;9069;52.044;7.472;2023-02-28T15:54:05;3.95;;;1.42;;
17886;SDS011;9069;52.044;7.472;2023-02-28T15:56:44;3.78;;;1.48;;
17886;SDS011;9069;52.044;7.472;2023-02-28T15:59:14;4.22;;;1.40;;
17886;SDS011;9069;52.044;7.472;2023-02-28T16:01:44;2.67;;;1.60;;
17886;SDS011;9069;52.044;7.472;2023-02-28T16:04:20;3.90;;;1.70;;
17886;SDS011;9069;52.044;7.472;2023-02-28T16:09:23;2.97;;;1.92;;
17886;SDS011;9069;52.044;7.472;2023-02-28T16:11:51;4.10;;;1.70;;
17886;SDS011;9069;52.044;7.472;2023-02-28T16:14:24;4.18;;;1.67;;
17886;SDS011;9069;52.044;7.472;2023-02-28T16:17:03;1.83;;;1.63;;
17886;SDS011;9069;52.044;7.472;2023-02-28T16:19:32;2.20;;;1.38;;
17886;SDS011;9069;52.044;7.472;2023-02-28T16:22:00;2.88;;;1.38;;
17886;SDS011;9069;52.044;7.472;2023-02-28T16:24:27;6.95;;;1.48;;
17886;SDS011;9069;52.044;7.472;2023-02-28T16:26:54;4.57;;;1.80;;
17886;SDS011;9069;52.044;7.472;2023-02-28T16:31:53;10.90;;;4.40;;
17886;SDS011;9069;52.044;7.472;2023-02-28T16:34:21;7.15;;;2.65;;
17886;SDS011;9069;52.044;7.472;2023-02-28T16:36:48;2.47;;;1.45;;
17886;SDS011;9069;52.044;7.472;2023-02-28T16:39:16;3.70;;;2.08;;
17886;SDS011;9069;52.044;7.472;2023-02-28T16:41:43;2.53;;;1.60;;
17886;SDS011;9069;52.044;7.472;2023-02-28T16:44:12;9.27;;;2.15;;
17886;SDS011;9069;52.044;7.472;2023-02-28T16:46:57;3.53;;;1.92;;
17886;SDS011;9069;52.044;7.472;2023-02-28T16:49:26;5.40;;;2.25;;
17886;SDS011;9069;52.044;7.472;2023-02-28T16:51:53;3.63;;;1.95;;
17886;SDS011;9069;52.044;7.472;2023-02-28T16:54:20;4.93;;;2.10;;
17886;SDS011;9069;52.044;7.472;2023-02-28T16:56:47;3.58;;;2.10;;
17886;SDS011;9069;52.044;7.472;2023-02-28T16:59:17;7.45;;;3.60;;
17886;SDS011;9069;52.044;7.472;2023-02-28T17:01:47;10.27;;;5.40;;
17886;SDS011;9069;52.044;7.472;2023-02-28T17:04:15;18.83;;;8.07;;
17886;SDS011;9069;52.044;7.472;2023-02-28T17:06:42;15.32;;;6.95;;
17886;SDS011;9069;52.044;7.472;2023-02-28T17:09:20;11.32;;;5.47;;
17886;SDS011;9069;52.044;7.472;2023-02-28T17:11:53;8.07;;;4.75;;
17886;SDS011;9069;52.044;7.472;2023-02-28T17:14:20;4.75;;;3.47;;
17886;SDS011;9069;52.044;7.472;2023-02-28T17:16:49;5.35;;;2.90;;
17886;SDS011;9069;52.044;7.472;2023-02-28T17:19:16;4.90;;;2.90;;
17886;SDS011;9069;52.044;7.472;2023-02-28T17:21:43;6.47;;;3.88;;
17886;SDS011;9069;52.044;7.472;2023-02-28T17:24:10;9.60;;;4.30;;
17886;SDS011;9069;52.044;7.472;2023-02-28T17:26:44;6.20;;;4.18;;
17886;SDS011;9069;52.044;7.472;2023-02-28T17:29:18;4.13;;;3.35;;
17886;SDS011;9069;52.044;7.472;2023-02-28T17:31:47;5.55;;;4.53;;
17886;SDS011;9069;52.044;7.472;2023-02-28T17:34:14;7.85;;;4.78;;
17886;SDS011;9069;52.044;7.472;2023-02-28T17:36:45;7.88;;;4.10;;
17886;SDS011;9069;52.044;7.472;2023-02-28T17:39:13;6.72;;;3.38;;
17886;SDS011;9069;52.044;7.472;2023-02-28T17:41:41;5.45;;;3.53;;
17886;SDS011;9069;52.044;7.472;2023-02-28T17:44:08;4.95;;;3.28;;